Time;durP1;ratioP1;P1;durP2;ratioP2;P2;SDS_P1;SDS_P2;PMS_P1;PMS_P2;Temp;Humidity;BMP_temperature;BMP_pressure;BME280_temperature;BME280_humidity;BME280_pressure;Samples;Min_cycle;Max_cycle;Signal;HPM_P1;HPM_P2
2023/04/01 00:00:01;;;;;;;;;1.00;1.00;;;;;8.51;84.03;96716.13;4983403;28;104341;-70
2023/04/01 00:02:28;;;;;;;;;1.50;1.00;;;;;8.52;84.48;96707.00;4978836;28;103719;-71
2023/04/01 00:05:07;;;;;;;;;1.50;1.50;;;;;8.54;83.96;96709.47;4984826;28;102270;-70
2023/04/01 00:07:52;;;;;;;;;3.00;2.00;;;;;8.52;84.48;96690.84;4988874;28;102206;-70
2023/04/01 00:10:35;;;;;;;;;1.00;1.00;;;;;8.54;84.37;96694.13;4968899;28;108356;-70
2023/04/01 00:13:36;;;;;;;;;0.50;0.00;;;;;8.56;84.03;96708.16;4967146;28;102472;-70
2023/04/01 00:16:24;;;;;;;;;0.75;0.75;;;;;8.56;84.36;96697.41;4970421;28;102382;-70
2023/04/01 00:19:09;;;;;;;;;1.00;1.00;;;;;8.56;84.28;96691.19;4973227;28;102769;-70
2023/04/01 00:21:43;;;;;;;;;2.00;1.00;;;;;8.56;83.97;96694.69;4983687;28;103224;-70
2023/04/01 00:24:10;;;;;;;;;2.00;2.00;;;;;8.55;84.35;96700.34;4988123;28;103104;-70
2023/04/01 00:26:37;;;;;;;;;1.00;1.00;;;;;8.54;84.43;96691.44;4987240;28;103636;-70
2023/04/01 00:29:05;;;;;;;;;1.50;1.00;;;;;8.49;84.72;96686.75;4987622;28;101931;-69
2023/04/01 00:31:32;;;;;;;;;0.25;0.25;;;;;8.47;84.17;96688.84;4986791;28;102815;-70
2023/04/01 00:33:59;;;;;;;;;0.50;0.50;;;;;8.43;84.06;96679.59;4981977;28;102468;-70
2023/04/01 00:36:26;;;;;;;;;2.00;1.00;;;;;8.40;84.25;96692.72;4966614;28;102262;-70
2023/04/01 00:38:53;;;;;;;;;2.00;1.00;;;;;8.34;85.01;96688.25;4986123;28;103474;-70
2023/04/01 00:41:21;;;;;;;;;1.50;1.00;;;;;8.29;85.14;96701.56;4980467;28;108565;-70
2023/04/01 00:43:50;;;;;;;;;0.00;0.00;;;;;8.23;84.57;96689.06;4966458;28;102369;-70
2023/04/01 00:46:18;;;;;;;;;1.00;1.00;;;;;8.18;85.24;96689.75;4968932;28;101930;-69
2023/04/01 00:48:50;;;;;;;;;1.00;0.25;;;;;8.11;85.94;96682.81;4975252;28;102077;-70
2023/04/01 00:51:23;;;;;;;;;2.25;1.00;;;;;8.04;86.30;96689.16;4966382;28;104004;-70
2023/04/01 00:53:54;;;;;;;;;0.25;0.25;;;;;8.02;86.51;96691.25;4975093;28;102358;-71
2023/04/01 00:56:34;;;;;;;;;2.00;2.00;;;;;7.95;86.24;96690.53;4973416;28;102087;-70
2023/04/01 00:59:14;;;;;;;;;1.00;1.00;;;;;7.96;86.99;96697.56;4965527;28;102263;-70
2023/04/01 01:01:42;;;;;;;;;2.00;2.00;;;;;7.92;86.96;96693.72;4963002;28;104158;-71
2023/04/01 01:04:21;;;;;;;;;1.00;1.00;;;;;7.90;87.12;96690.41;4966150;28;102543;-70
2023/04/01 01:07:14;;;;;;;;;1.25;1.25;;;;;7.86;87.05;96686.53;4983726;28;102338;-70
2023/04/01 01:10:12;;;;;;;;;1.50;1.00;;;;;7.82;87.78;96693.44;4979704;28;102473;-70
2023/04/01 01:13:14;;;;;;;;;1.00;1.00;;;;;7.80;87.90;96695.53;4975402;28;107463;-70
2023/04/01 01:16:13;;;;;;;;;0.25;0.25;;;;;7.78;88.03;96688.75;4965348;28;102458;-70
2023/04/01 01:19:39;;;;;;;;;1.00;0.00;;;;;7.73;87.81;96683.25;4967281;28;102174;-69
2023/04/01 01:22:56;;;;;;;;;1.25;1.00;;;;;7.84;88.31;96696.69;4936982;28;102775;-70
2023/04/01 01:25:58;;;;;;;;;1.00;1.00;;;;;7.83;88.53;96703.16;4975635;28;107675;-70
2023/04/01 01:28:27;;;;;;;;;1.75;1.50;;;;;7.85;88.42;96695.66;4967428;28;101905;-70
2023/04/01 01:31:11;;;;;;;;;2.00;1.75;;;;;7.85;88.66;96695.66;4966338;28;103726;-70
2023/04/01 01:33:41;;;;;;;;;2.00;1.50;;;;;7.87;88.33;96698.13;4975555;28;102134;-70
2023/04/01 01:36:13;;;;;;;;;0.50;0.50;;;;;7.91;87.85;96694.75;4970558;28;104363;-70
2023/04/01 01:38:40;;;;;;;;;0.25;0.25;;;;;7.93;87.81;96684.56;4987026;27;102461;-70
2023/04/01 01:41:09;;;;;;;;;0.00;0.00;;;;;7.99;87.67;96689.03;4988514;28;103632;-70
2023/04/01 01:43:42;;;;;;;;;1.00;1.00;;;;;8.02;87.69;96690.41;4988223;28;103730;-70
2023/04/01 01:46:14;;;;;;;;;0.00;0.00;;;;;8.05;87.15;96680.03;4987734;28;104023;-70
2023/04/01 01:48:43;;;;;;;;;0.00;0.00;;;;;7.85;87.28;96654.47;4986982;28;102408;-70
2023/04/01 01:51:10;;;;;;;;;0.75;0.25;;;;;8.05;87.51;96682.72;4991414;28;102050;-70
2023/04/01 01:53:37;;;;;;;;;0.25;0.00;;;;;8.05;88.17;96682.72;4991748;28;102426;-70
2023/04/01 01:56:04;;;;;;;;;0.00;0.00;;;;;8.05;87.40;96673.84;4991370;28;103755;-70
2023/04/01 01:58:42;;;;;;;;;0.75;0.00;;;;;8.06;87.83;96692.41;4989720;28;102441;-71
2023/04/01 02:01:16;;;;;;;;;0.25;0.00;;;;;8.04;88.04;96688.34;4989284;28;101883;-70
2023/04/01 02:03:45;;;;;;;;;1.25;1.00;;;;;8.01;87.56;96683.41;4990946;28;101953;-70
2023/04/01 02:06:17;;;;;;;;;2.75;1.00;;;;;7.97;87.94;96693.81;4988962;28;104078;-71
2023/04/01 02:08:51;;;;;;;;;1.00;1.00;;;;;7.97;87.49;96693.00;4986294;28;102618;-71
2023/04/01 02:11:27;;;;;;;;;4.00;2.00;;;;;7.95;88.17;96685.16;4985839;28;103358;-71
2023/04/01 02:14:02;;;;;;;;;0.50;0.50;;;;;7.95;87.96;96695.94;4982072;28;102020;-71
2023/04/01 02:16:42;;;;;;;;;1.00;1.00;;;;;7.94;88.03;96701.53;4980968;28;110746;-70
2023/04/01 02:19:12;;;;;;;;;0.75;0.75;;;;;7.94;88.52;96701.53;4987291;28;102469;-70
2023/04/01 02:21:41;;;;;;;;;1.50;1.00;;;;;7.93;88.21;96707.94;4976811;28;102477;-70
2023/04/01 02:24:14;;;;;;;;;3.75;2.00;;;;;7.94;88.13;96710.41;4979476;28;102220;-69
2023/04/01 02:26:42;;;;;;;;;1.00;1.00;;;;;7.73;88.51;96678.69;4964280;28;104040;-70
2023/04/01 02:29:12;;;;;;;;;1.50;1.00;;;;;7.94;88.73;96715.81;4971905;28;102409;-70
2023/04/01 02:31:41;;;;;;;;;2.25;0.25;;;;;7.95;88.43;96717.44;4976432;28;102357;-69
2023/04/01 02:34:09;;;;;;;;;0.75;0.75;;;;;7.96;88.36;96723.66;4984770;28;102514;-69
2023/04/01 02:36:36;;;;;;;;;1.75;1.75;;;;;7.95;88.37;96709.38;4972443;28;104018;-69
2023/04/01 02:39:05;;;;;;;;;1.00;0.00;;;;;7.95;88.22;96714.75;4985352;28;101987;-69
2023/04/01 02:41:39;;;;;;;;;1.50;1.00;;;;;7.95;88.38;96711.25;4987432;28;102133;-70
2023/04/01 02:44:07;;;;;;;;;0.00;0.00;;;;;7.94;88.45;96715.81;4991665;28;101947;-70
2023/04/01 02:46:34;;;;;;;;;1.00;1.00;;;;;7.94;88.50;96721.19;4988863;28;104004;-70
2023/04/01 02:49:01;;;;;;;;;0.25;0.25;;;;;7.93;88.38;96724.91;4989706;28;102456;-70
2023/04/01 02:51:28;;;;;;;;;1.00;1.00;;;;;7.91;88.10;96729.72;4969843;28;102084;-70
2023/04/01 02:53:57;;;;;;;;;1.00;1.00;;;;;7.88;88.16;96738.25;4978232;28;102258;-69
2023/04/01 02:56:25;;;;;;;;;0.00;0.00;;;;;7.88;89.17;96732.84;4989906;28;104128;-69
2023/04/01 02:58:54;;;;;;;;;1.00;1.00;;;;;7.86;89.04;96734.97;4985883;28;102329;-69
2023/04/01 03:01:21;;;;;;;;;1.75;1.75;;;;;7.85;89.01;96736.03;4972250;28;102058;-69
2023/04/01 03:03:49;;;;;;;;;1.00;1.00;;;;;7.85;89.43;96733.31;4969811;28;102233;-70
2023/04/01 03:06:17;;;;;;;;;0.25;0.00;;;;;7.84;88.92;96737.06;4976603;28;104191;-69
2023/04/01 03:08:44;;;;;;;;;1.00;1.00;;;;;7.83;89.12;96734.63;4983792;28;102137;-70
2023/04/01 03:11:12;;;;;;;;;2.00;1.50;;;;;7.81;89.03;96739.41;4988088;28;102371;-71
2023/04/01 03:13:39;;;;;;;;;1.00;1.00;;;;;7.83;89.55;96748.91;4987675;28;102527;-71
2023/04/01 03:16:06;;;;;;;;;2.75;1.00;;;;;7.82;89.20;96733.78;4972834;28;103675;-71
2023/04/01 03:18:33;;;;;;;;;0.75;0.75;;;;;7.82;89.57;96735.66;4972843;28;102966;-70
2023/04/01 03:21:20;;;;;;;;;1.00;1.00;;;;;7.82;89.14;96733.78;4978761;28;102668;-69
2023/04/01 03:23:47;;;;;;;;;1.00;1.00;;;;;7.82;89.87;96730.28;4991823;28;102326;-70
2023/04/01 03:26:15;;;;;;;;;1.00;1.00;;;;;7.82;89.00;96731.09;4989349;28;103967;-70
2023/04/01 03:28:42;;;;;;;;;0.75;0.75;;;;;7.81;89.27;96732.16;4989497;28;102214;-70
2023/04/01 03:31:10;;;;;;;;;0.00;0.00;;;;;7.81;89.88;96732.16;4988450;28;103570;-70
2023/04/01 03:33:37;;;;;;;;;0.50;0.00;;;;;7.82;89.31;96744.56;4988476;28;102096;-70
2023/04/01 03:36:06;;;;;;;;;1.00;1.00;;;;;7.82;89.10;96739.19;4976978;28;103974;-69
2023/04/01 03:38:34;;;;;;;;;0.00;0.00;;;;;7.82;89.22;96741.88;4980009;28;102238;-69
2023/04/01 03:41:01;;;;;;;;;0.00;0.00;;;;;7.81;89.85;96732.16;4989684;28;102173;-69
2023/04/01 03:43:28;;;;;;;;;1.00;0.00;;;;;7.81;89.84;96731.31;4990512;28;102566;-69
2023/04/01 03:45:57;;;;;;;;;1.00;0.00;;;;;7.61;90.40;96705.53;4977553;28;104022;-69
2023/04/01 03:48:25;;;;;;;;;0.00;0.00;;;;;7.77;91.00;96724.75;4953477;28;102468;-69
2023/04/01 03:50:52;;;;;;;;;0.00;0.00;;;;;7.75;91.08;96726.84;4976641;28;102295;-70
2023/04/01 03:53:19;;;;;;;;;0.50;0.00;;;;;7.73;91.41;96734.34;4977780;28;102524;-70
2023/04/01 03:55:46;;;;;;;;;0.25;0.00;;;;;7.69;91.06;96734.00;4990440;28;105041;-69
2023/04/01 03:58:13;;;;;;;;;0.00;0.00;;;;;7.69;91.23;96728.59;4990267;28;102327;-69
2023/04/01 04:00:40;;;;;;;;;0.00;0.00;;;;;7.68;91.53;96732.34;4990107;28;102792;-69
2023/04/01 04:03:07;;;;;;;;;1.00;0.00;;;;;7.68;91.42;96732.34;4988846;28;102491;-69
2023/04/01 04:05:34;;;;;;;;;0.00;0.00;;;;;7.64;91.41;96736.53;4983906;28;104428;-69
2023/04/01 04:08:02;;;;;;;;;0.00;0.00;;;;;7.65;91.61;96740.88;4971493;28;102255;-70
2023/04/01 04:10:29;;;;;;;;;1.00;1.00;;;;;7.65;91.85;96738.19;4971589;28;103524;-69
2023/04/01 04:12:56;;;;;;;;;0.25;0.25;;;;;7.64;91.58;96736.53;4971624;28;102364;-69
2023/04/01 04:15:23;;;;;;;;;0.00;0.00;;;;;7.64;91.76;96733.84;4967377;28;103994;-69
2023/04/01 04:17:50;;;;;;;;;0.00;0.00;;;;;7.66;91.85;96739.81;4985538;28;102436;-71
2023/04/01 04:20:18;;;;;;;;;0.00;0.00;;;;;7.67;91.62;96738.75;4988595;28;102123;-70
2023/04/01 04:22:45;;;;;;;;;0.00;0.00;;;;;7.69;91.87;96735.84;4988306;28;102326;-69
2023/04/01 04:25:12;;;;;;;;;0.00;0.00;;;;;7.70;91.76;96738.28;4987187;28;104010;-69
2023/04/01 04:27:39;;;;;;;;;0.00;0.00;;;;;7.70;91.66;96727.53;4968122;28;102567;-70
2023/04/01 04:30:08;;;;;;;;;1.00;0.00;;;;;7.72;91.48;96728.13;4970529;28;102473;-70
2023/04/01 04:32:35;;;;;;;;;0.25;0.00;;;;;7.52;91.71;96696.13;4980075;28;102344;-70
2023/04/01 04:35:02;;;;;;;;;0.00;0.00;;;;;7.76;90.97;96734.69;4970876;28;104089;-70
2023/04/01 04:37:29;;;;;;;;;1.00;0.00;;;;;7.75;90.85;96729.53;4977134;28;102552;-70
2023/04/01 04:39:56;;;;;;;;;0.00;0.00;;;;;7.80;91.17;96730.50;4966906;28;102301;-70
2023/04/01 04:42:24;;;;;;;;;0.25;0.00;;;;;7.80;90.74;96729.69;4980024;28;102017;-70
2023/04/01 04:44:51;;;;;;;;;0.00;0.00;;;;;7.81;91.26;96732.16;4986459;28;110605;-70
2023/04/01 04:47:18;;;;;;;;;0.00;0.00;;;;;7.82;91.00;96731.09;4985618;28;102199;-70
2023/04/01 04:49:45;;;;;;;;;0.00;0.00;;;;;7.86;90.59;96723.38;4971731;28;102099;-71
2023/04/01 04:52:12;;;;;;;;;0.00;0.00;;;;;7.88;90.47;96732.84;4974309;28;102375;-70
2023/04/01 04:54:39;;;;;;;;;1.00;0.50;;;;;7.92;90.89;96727.88;4972903;28;103999;-71
2023/04/01 04:57:06;;;;;;;;;1.00;0.00;;;;;7.94;91.27;96731.13;4982384;28;102417;-70
2023/04/01 04:59:33;;;;;;;;;0.00;0.00;;;;;7.99;90.95;96734.78;4989119;28;102413;-71
2023/04/01 05:02:00;;;;;;;;;0.50;0.50;;;;;8.01;90.44;96731.88;4993054;28;101934;-71
2023/04/01 05:04:27;;;;;;;;;0.25;0.25;;;;;8.08;90.23;96732.56;4991469;28;103969;-71
2023/04/01 05:06:54;;;;;;;;;0.50;0.50;;;;;8.14;90.21;96739.72;4990436;28;103584;-70
2023/04/01 05:09:21;;;;;;;;;0.00;0.00;;;;;8.18;89.90;96735.53;4985585;28;102103;-70
2023/04/01 05:11:48;;;;;;;;;2.00;2.00;;;;;8.21;90.16;96734.22;4973198;28;104002;-70
2023/04/01 05:14:16;;;;;;;;;1.00;0.00;;;;;8.24;89.69;96736.47;4986118;28;104086;-69
2023/04/01 05:16:43;;;;;;;;;0.25;0.25;;;;;8.30;89.08;96740.94;4989774;28;102425;-70
2023/04/01 05:19:10;;;;;;;;;0.25;0.00;;;;;8.34;89.37;96737.56;4988857;28;104042;-70
2023/04/01 05:21:37;;;;;;;;;0.00;0.00;;;;;8.41;89.42;96745.53;4968922;28;102512;-70
2023/04/01 05:24:09;;;;;;;;;0.00;0.00;;;;;8.43;88.49;96729.94;4973304;28;104211;-70
2023/04/01 05:26:36;;;;;;;;;0.00;0.00;;;;;8.50;88.13;96738.75;4976751;28;102186;-70
2023/04/01 05:29:04;;;;;;;;;0.00;0.00;;;;;8.53;87.90;96732.88;4985706;28;102185;-70
2023/04/01 05:31:31;;;;;;;;;0.00;0.00;;;;;8.59;88.30;96745.44;4972358;28;102596;-70
2023/04/01 05:33:58;;;;;;;;;1.00;0.50;;;;;8.67;87.60;96733.47;4984045;28;104113;-70
2023/04/01 05:36:25;;;;;;;;;1.00;1.00;;;;;8.76;87.13;96746.38;4969645;28;102484;-69
2023/04/01 05:38:56;;;;;;;;;1.00;1.00;;;;;8.87;86.76;96750.13;4986866;28;102692;-70
2023/04/01 05:41:23;;;;;;;;;0.50;0.50;;;;;8.97;87.04;96742.25;4970239;27;101989;-69
2023/04/01 05:43:49;;;;;;;;;0.75;0.75;;;;;9.07;86.93;96741.66;4970271;28;104109;-69
2023/04/01 05:46:16;;;;;;;;;1.00;1.00;;;;;9.17;86.02;96748.09;4970679;28;102077;-69
2023/04/01 05:48:44;;;;;;;;;3.00;2.25;;;;;9.30;85.35;96744.31;4971706;28;103669;-69
2023/04/01 05:51:15;;;;;;;;;1.25;1.00;;;;;9.39;84.89;96742.88;4980484;28;104259;-69
2023/04/01 05:53:42;;;;;;;;;1.75;1.00;;;;;9.52;84.98;96742.59;4972874;28;103230;-69
2023/04/01 05:56:09;;;;;;;;;1.00;1.00;;;;;9.57;83.92;96742.69;4981427;28;102551;-68
2023/04/01 05:58:37;;;;;;;;;1.75;1.00;;;;;9.60;83.61;96747.59;4978708;28;103124;-70
2023/04/01 06:01:09;;;;;;;;;0.25;0.25;;;;;9.67;83.50;96742.91;4969820;28;102342;-70
2023/04/01 06:03:42;;;;;;;;;1.50;1.25;;;;;9.72;82.77;96745.69;4976862;28;104077;-71
2023/04/01 06:06:27;;;;;;;;;1.75;1.00;;;;;9.77;82.71;96751.16;4978443;28;102471;-71
2023/04/01 06:08:57;;;;;;;;;0.25;0.25;;;;;9.83;82.74;96752.91;4976992;28;102374;-70
2023/04/01 06:11:48;;;;;;;;;1.75;0.75;;;;;9.84;82.04;96749.16;4971179;28;102118;-70
2023/04/01 06:14:37;;;;;;;;;2.00;1.25;;;;;9.75;82.38;96750.59;4987862;28;108773;-70
2023/04/01 06:17:30;;;;;;;;;2.00;2.00;;;;;9.62;82.46;96740.09;4972951;28;102083;-70
2023/04/01 06:20:02;;;;;;;;;0.50;0.50;;;;;9.71;82.97;96765.66;4971713;28;102374;-70
2023/04/01 06:22:58;;;;;;;;;1.75;1.75;;;;;9.66;82.88;96760.16;4968723;28;102602;-70
2023/04/01 06:26:02;;;;;;;;;2.50;1.00;;;;;9.66;83.22;96760.16;4977656;28;108637;-71
2023/04/01 06:28:35;;;;;;;;;3.00;2.00;;;;;9.63;83.50;96762.50;4985580;28;102442;-70
2023/04/01 06:31:44;;;;;;;;;2.50;1.50;;;;;9.69;83.40;96766.94;4975665;28;102359;-71
2023/04/01 06:34:47;;;;;;;;;0.75;0.75;;;;;9.71;83.31;96771.03;4968517;28;102398;-70
2023/04/01 06:37:43;;;;;;;;;1.00;1.00;;;;;9.74;82.99;96770.56;4988446;28;108417;-70
2023/04/01 06:40:45;;;;;;;;;1.50;1.50;;;;;9.71;82.03;96768.34;4968707;28;103034;-71
2023/04/01 06:43:54;;;;;;;;;2.00;2.00;;;;;9.68;82.36;96766.09;4976336;28;102496;-71
2023/04/01 06:46:46;;;;;;;;;1.75;1.00;;;;;9.72;82.47;96767.28;4957098;28;102348;-71
2023/04/01 06:49:39;;;;;;;;;2.25;2.25;;;;;9.67;82.65;96763.66;4978045;28;108602;-70
2023/04/01 06:52:22;;;;;;;;;2.00;1.00;;;;;9.72;82.34;96759.19;4969889;28;102476;-70
2023/04/01 06:55:01;;;;;;;;;2.00;2.00;;;;;9.77;82.78;96764.66;4968548;28;102870;-70
2023/04/01 06:57:34;;;;;;;;;2.00;1.75;;;;;9.86;81.82;96763.22;4972675;28;102613;-70
2023/04/01 07:00:11;;;;;;;;;1.50;0.25;;;;;9.95;82.25;96760.16;4976760;28;104218;-70
2023/04/01 07:02:44;;;;;;;;;2.00;2.00;;;;;10.05;81.15;96768.41;4981583;28;102162;-70
2023/04/01 07:05:14;;;;;;;;;3.50;3.00;;;;;10.10;80.55;96746.91;4990679;28;102081;-70
2023/04/01 07:07:48;;;;;;;;;2.00;1.00;;;;;10.35;80.43;96771.72;4990977;28;102238;-71
2023/04/01 07:10:28;;;;;;;;;1.00;1.00;;;;;10.43;79.68;96771.31;4981041;28;104000;-71
2023/04/01 07:13:00;;;;;;;;;1.00;0.00;;;;;10.43;79.39;96765.06;4989148;28;103375;-69
2023/04/01 07:15:39;;;;;;;;;4.00;3.00;;;;;10.51;80.60;96770.06;4988797;28;102189;-71
2023/04/01 07:18:16;;;;;;;;;2.00;2.00;;;;;10.58;80.33;96771.53;4973873;28;101950;-70
2023/04/01 07:20:45;;;;;;;;;1.50;1.00;;;;;10.63;79.25;96765.38;4975276;28;104795;-71
2023/04/01 07:23:26;;;;;;;;;1.00;1.00;;;;;10.67;78.85;96775.47;4977433;28;102341;-70
2023/04/01 07:25:59;;;;;;;;;2.00;2.00;;;;;10.70;79.55;96772.28;4979687;28;102034;-70
2023/04/01 07:28:31;;;;;;;;;2.50;2.50;;;;;10.81;78.71;96775.16;4971572;28;102621;-71
2023/04/01 07:31:04;;;;;;;;;5.00;4.75;;;;;10.77;78.96;96777.50;4981697;28;103641;-70
2023/04/01 07:33:55;;;;;;;;;2.50;2.00;;;;;10.93;78.46;96778.56;4985357;28;102249;-71
2023/04/01 07:36:33;;;;;;;;;3.75;3.00;;;;;11.03;79.31;96776.81;4973450;28;102563;-70
2023/04/01 07:39:21;;;;;;;;;3.00;2.00;;;;;10.96;79.06;96781.59;4977057;28;102401;-70
2023/04/01 07:42:15;;;;;;;;;2.00;2.00;;;;;10.72;79.47;96778.25;4979046;28;104145;-70
2023/04/01 07:45:07;;;;;;;;;2.00;1.75;;;;;10.84;80.43;96788.16;4973397;28;103705;-70
2023/04/01 07:47:58;;;;;;;;;4.00;4.00;;;;;10.81;79.80;96789.47;4970825;28;102065;-70
2023/04/01 07:50:54;;;;;;;;;3.00;2.25;;;;;10.82;80.62;96787.59;4973419;28;103932;-70
2023/04/01 07:53:30;;;;;;;;;2.75;2.00;;;;;10.89;80.45;96790.97;4986667;28;104002;-71
2023/04/01 07:56:10;;;;;;;;;4.25;3.25;;;;;10.78;80.77;96789.16;4985172;28;102453;-70
2023/04/01 07:58:43;;;;;;;;;1.50;1.50;;;;;10.93;80.77;96792.09;4966419;28;102415;-71
2023/04/01 08:01:26;;;;;;;;;2.75;2.75;;;;;10.97;80.93;96796.75;4965665;28;101998;-70
2023/04/01 08:04:41;;;;;;;;;5.75;5.50;;;;;10.63;81.22;96790.53;4984743;28;108672;-70
2023/04/01 08:07:20;;;;;;;;;5.25;4.00;;;;;10.47;81.68;96794.06;4984664;28;102423;-70
2023/04/01 08:10:18;;;;;;;;;4.00;3.00;;;;;10.56;81.73;96799.88;4972935;28;102299;-70
2023/04/01 08:12:57;;;;;;;;;3.00;3.00;;;;;10.53;82.44;96805.78;4982545;28;102185;-70
2023/04/01 08:15:35;;;;;;;;;2.00;2.00;;;;;10.44;83.15;96810.78;4968145;28;108650;-70
2023/04/01 08:18:19;;;;;;;;;4.00;2.75;;;;;10.34;83.94;96813.28;4963283;28;102207;-70
2023/04/01 08:21:01;;;;;;;;;4.25;4.25;;;;;10.22;85.07;96813.34;4973941;28;102861;-69
2023/04/01 08:23:31;;;;;;;;;3.00;3.00;;;;;10.35;84.58;96825.75;4972964;28;102573;-70
2023/04/01 08:26:15;;;;;;;;;4.50;4.50;;;;;10.38;84.87;96817.13;4973701;28;104169;-70
2023/04/01 08:29:09;;;;;;;;;1.50;1.00;;;;;10.18;84.90;96814.88;4977727;28;102302;-70
2023/04/01 08:31:58;;;;;;;;;3.00;3.00;;;;;10.28;84.87;96816.94;4987625;28;102214;-70
2023/04/01 08:34:32;;;;;;;;;4.75;4.00;;;;;10.36;84.05;96813.84;4984106;28;102326;-70
2023/04/01 08:37:07;;;;;;;;;4.50;4.00;;;;;10.50;83.73;96817.88;4978680;28;108301;-70
2023/04/01 08:39:45;;;;;;;;;3.00;2.50;;;;;10.65;83.52;96807.34;4978847;28;103334;-70
2023/04/01 08:42:21;;;;;;;;;2.00;2.00;;;;;10.94;83.20;96812.66;4988452;28;102555;-71
2023/04/01 08:45:06;;;;;;;;;3.00;3.00;;;;;11.02;81.59;96804.13;4984839;28;104881;-70
2023/04/01 08:48:08;;;;;;;;;3.75;3.75;;;;;11.15;80.43;96806.50;4970921;28;108361;-69
2023/04/01 08:50:50;;;;;;;;;6.00;4.00;;;;;11.16;79.88;96808.13;4968509;28;105004;-70
2023/04/01 08:53:32;;;;;;;;;5.25;4.50;;;;;10.89;79.25;96799.06;4969420;28;102578;-69
2023/04/01 08:56:05;;;;;;;;;5.25;5.25;;;;;10.90;81.06;96816.91;4967338;28;102613;-70
2023/04/01 08:58:42;;;;;;;;;5.50;3.75;;;;;11.08;79.94;96803.13;4986654;28;104023;-69
2023/04/01 09:01:24;;;;;;;;;4.00;3.00;;;;;10.90;80.03;96806.09;4982481;28;104386;-69
2023/04/01 09:04:12;;;;;;;;;6.00;4.50;;;;;10.87;80.02;96803.88;4972736;28;102640;-70
2023/04/01 09:07:04;;;;;;;;;3.00;3.00;;;;;10.76;80.35;96815.63;4970130;28;103009;-71
2023/04/01 09:10:08;;;;;;;;;7.00;6.00;;;;;10.25;83.51;96820.16;4968184;28;107890;-70
2023/04/01 09:12:45;;;;;;;;;4.00;4.00;;;;;10.30;84.16;96814.84;4964818;28;105841;-70
2023/04/01 09:15:18;;;;;;;;;4.00;4.00;;;;;10.39;84.37;96828.78;4971801;28;102433;-69
2023/04/01 09:17:54;;;;;;;;;5.50;5.50;;;;;10.34;85.49;96817.88;4965413;28;105412;-70
2023/04/01 09:20:47;;;;;;;;;3.00;3.00;;;;;10.65;84.57;96814.63;4971895;28;104103;-70
2023/04/01 09:24:05;;;;;;;;;8.00;8.00;;;;;10.76;85.92;96815.63;4948998;28;103596;-70
2023/04/01 09:27:05;;;;;;;;;5.50;5.00;;;;;10.68;85.40;96785.22;4945748;28;103554;-72
2023/04/01 09:29:54;;;;;;;;;3.00;3.00;;;;;11.38;83.84;96808.16;4973874;28;102494;-69
2023/04/01 09:32:30;;;;;;;;;3.00;3.00;;;;;11.78;85.36;96806.03;4989188;28;108707;-69
2023/04/01 09:35:03;;;;;;;;;4.00;4.00;;;;;11.96;80.93;96813.81;4969776;28;102277;-69
2023/04/01 09:37:46;;;;;;;;;2.75;2.75;;;;;12.04;78.67;96807.13;4971274;28;101818;-69
2023/04/01 09:40:37;;;;;;;;;7.00;6.00;;;;;11.75;82.43;96813.84;4974208;28;102584;-69
2023/04/01 09:43:25;;;;;;;;;6.00;6.00;;;;;11.62;80.17;96810.38;4968165;28;107867;-70
2023/04/01 09:46:31;;;;;;;;;5.00;4.00;;;;;11.83;78.31;96806.09;4991088;28;102146;-69
2023/04/01 09:49:00;;;;;;;;;3.00;2.75;;;;;12.04;78.54;96807.13;4961488;28;102664;-70
2023/04/01 09:51:27;;;;;;;;;3.75;3.00;;;;;11.94;77.43;96817.84;4973063;28;102435;-69
2023/04/01 09:54:24;;;;;;;;;7.50;5.50;;;;;11.34;78.36;96812.44;4974436;28;104213;-70
2023/04/01 09:57:29;;;;;;;;;3.00;3.00;;;;;11.21;79.61;96812.81;4981172;28;102495;-70
2023/04/01 10:00:27;;;;;;;;;4.75;3.75;;;;;11.13;81.91;96816.72;4973971;28;102219;-72
2023/04/01 10:03:18;;;;;;;;;2.00;2.00;;;;;11.11;82.62;96817.00;4980168;28;102451;-70
2023/04/01 10:06:15;;;;;;;;;3.50;3.50;;;;;10.89;85.16;96821.53;4988385;28;108598;-69
2023/04/01 10:08:52;;;;;;;;;5.00;4.50;;;;;10.93;86.16;96816.44;4969804;28;102378;-68
2023/04/01 10:11:39;;;;;;;;;5.00;3.75;;;;;11.07;86.55;96823.97;4983512;28;103408;-69
2023/04/01 10:14:06;;;;;;;;;4.75;4.00;;;;;11.29;85.70;96821.31;4978232;28;102416;-69
2023/04/01 10:17:26;;;;;;;;;2.00;2.00;;;;;11.82;85.02;96825.28;4973636;28;104036;-69
2023/04/01 10:20:31;;;;;;;;;2.25;2.00;;;;;12.27;80.37;96820.38;4921260;28;102569;-69
2023/04/01 10:23:17;;;;;;;;;2.00;1.00;;;;;12.36;76.67;96816.16;4976471;28;102443;-69
2023/04/01 10:26:18;;;;;;;;;3.00;2.50;;;;;12.31;79.34;96815.25;4974213;28;102392;-70
2023/04/01 10:28:48;;;;;;;;;1.75;1.25;;;;;12.10;78.36;96816.13;4989461;28;108373;-69
2023/04/01 10:31:30;;;;;;;;;1.00;1.00;;;;;12.11;78.07;96818.59;4971774;28;101909;-69
2023/04/01 10:33:57;;;;;;;;;0.50;0.50;;;;;11.97;78.85;96814.63;4988369;28;102382;-70
2023/04/01 10:36:48;;;;;;;;;1.25;1.25;;;;;12.04;79.19;96817.97;4977918;28;101979;-70
2023/04/01 10:39:28;;;;;;;;;2.00;1.50;;;;;11.95;78.32;96819.47;4987588;28;108419;-69
2023/04/01 10:42:14;;;;;;;;;4.00;4.00;;;;;11.88;79.83;96818.88;4976426;28;101985;-69
2023/04/01 10:45:18;;;;;;;;;4.00;4.00;;;;;11.38;79.97;96808.16;4975893;28;102216;-69
2023/04/01 10:48:24;;;;;;;;;2.00;1.50;;;;;11.44;79.56;96810.69;4969348;28;102136;-69
2023/04/01 10:51:03;;;;;;;;;2.00;2.00;;;;;11.35;79.97;96814.88;4935251;28;108502;-69
2023/04/01 10:54:18;;;;;;;;;2.00;2.00;;;;;11.24;80.53;96820.41;4988337;28;102397;-69
2023/04/01 10:56:54;;;;;;;;;2.00;2.00;;;;;11.11;81.48;96824.28;4926746;28;102363;-69
2023/04/01 10:59:40;;;;;;;;;1.00;1.00;;;;;11.07;84.64;96828.56;4983323;28;102357;-70
2023/04/01 11:02:46;;;;;;;;;2.75;2.00;;;;;10.92;85.70;96823.72;4971436;28;108631;-69
2023/04/01 11:05:22;;;;;;;;;0.50;0.00;;;;;10.99;87.62;96837.06;4963485;28;102495;-70
2023/04/01 11:08:16;;;;;;;;;1.25;1.25;;;;;11.01;87.58;96832.25;4977219;28;102303;-70
2023/04/01 11:11:01;;;;;;;;;3.50;3.00;;;;;11.36;89.39;96826.53;4972716;28;102548;-70
2023/04/01 11:13:56;;;;;;;;;2.00;2.00;;;;;11.59;88.58;96821.72;4990798;28;107666;-70
2023/04/01 11:17:01;;;;;;;;;4.25;4.25;;;;;11.18;88.83;96827.63;4975572;28;102537;-69
2023/04/01 11:19:28;;;;;;;;;5.00;3.75;;;;;11.58;87.96;96827.38;4974364;28;102585;-69
2023/04/01 11:22:29;;;;;;;;;3.00;2.75;;;;;11.59;85.18;96823.59;4966937;28;102552;-69
2023/04/01 11:25:14;;;;;;;;;1.00;0.00;;;;;11.44;85.57;96824.22;4968875;28;107651;-70
2023/04/01 11:27:50;;;;;;;;;3.00;3.00;;;;;11.73;83.47;96837.63;4972379;28;102478;-69
2023/04/01 11:30:28;;;;;;;;;3.00;3.00;;;;;11.71;81.16;96824.28;4970865;28;102232;-69
2023/04/01 11:33:24;;;;;;;;;2.00;2.00;;;;;11.87;81.38;96825.34;4970767;28;102217;-70
2023/04/01 11:36:07;;;;;;;;;5.50;5.00;;;;;11.60;82.23;96823.38;4977156;28;108558;-69
2023/04/01 11:38:52;;;;;;;;;7.00;6.00;;;;;11.44;81.61;96828.81;4972013;28;103849;-69
2023/04/01 11:41:37;;;;;;;;;5.00;4.00;;;;;11.90;83.10;96820.25;4954356;28;102218;-69
2023/04/01 11:44:30;;;;;;;;;5.50;4.00;;;;;12.22;81.23;96817.63;4966727;28;102580;-70
2023/04/01 11:47:05;;;;;;;;;5.25;4.25;;;;;11.91;78.72;96816.47;4981876;28;108598;-68
2023/04/01 11:49:56;;;;;;;;;2.25;2.00;;;;;12.18;77.60;96818.38;4984219;28;102711;-71
2023/04/01 11:52:54;;;;;;;;;4.00;3.00;;;;;12.55;77.41;96810.34;4979888;28;102314;-69
2023/04/01 11:55:27;;;;;;;;;3.25;3.25;;;;;12.94;75.86;96804.44;4969659;28;104024;-70
2023/04/01 11:58:12;;;;;;;;;2.00;2.00;;;;;13.19;73.83;96808.47;4983377;28;109061;-69
2023/04/01 12:01:13;;;;;;;;;2.00;2.00;;;;;12.95;73.02;96814.22;4972362;28;102385;-69
2023/04/01 12:04:05;;;;;;;;;2.50;2.00;;;;;13.09;71.98;96811.91;4985227;28;102019;-70
2023/04/01 12:06:50;;;;;;;;;2.25;2.25;;;;;12.68;73.13;96823.50;4970730;28;102571;-70
2023/04/01 12:09:34;;;;;;;;;1.00;1.00;;;;;12.73;71.06;96815.41;4969276;28;104125;-70
2023/04/01 12:12:25;;;;;;;;;2.25;1.50;;;;;12.75;73.01;96814.06;4967774;28;102557;-70
2023/04/01 12:15:11;;;;;;;;;5.75;4.75;;;;;12.53;72.73;96816.03;4972081;28;102272;-70
2023/04/01 12:17:41;;;;;;;;;3.00;2.25;;;;;12.40;73.56;96821.88;4974102;28;102189;-70
2023/04/01 12:20:20;;;;;;;;;5.75;5.00;;;;;11.96;74.13;96830.06;4966979;28;104188;-70